Winsted, Connecticut
Current Conditions -  °F | °C
As of 6:51 PM on Sunday 21 Dec 2014 (Local Time) from KBDL Reporting Station
Overcast Overcast  
Wind Chill: 29°   Ceiling: 1800
Heat Index: 34°   Visibility: 10mi
Dew Point: 30°   Wind: 6mph
Humidity: 85%   Direction: 350°N
Pressure: 30.33"   Gusts: NA
Location:  41.92°N, 73.07°W
Report Text: KBDL 212351Z 35005KT 10SM OVC018 01/M01 A3033 RMK AO2 SLP272 60000 T00111011 10011 20006 53014 $
Loading
Personal Weather Stations






























Interactive Weather Map New forecast layout! Learn more

10-Day Weather Forecast

Advertisements
Track Severe Weather on mobile